createdAt,value
2023-01-23T00:01:11.417Z,100124.88
2023-01-23T00:03:17.361Z,100129.59
2023-01-23T00:05:22.469Z,100134.34
2023-01-23T00:07:27.815Z,100136.59
2023-01-23T00:09:36.460Z,100125.69
2023-01-23T00:11:41.687Z,100131.47
2023-01-23T00:13:46.765Z,100134.72
2023-01-23T00:15:52.326Z,100136.34
2023-01-23T00:17:58.531Z,100135.50
2023-01-23T00:20:04.680Z,100143.94
2023-01-23T00:22:09.628Z,100135.69
2023-01-23T00:24:16.384Z,100142.31
2023-01-23T00:26:27.566Z,100137.34
2023-01-23T00:28:32.994Z,100131.66
2023-01-23T00:30:39.444Z,100136.47
2023-01-23T00:32:44.624Z,100131.94
2023-01-23T00:34:50.086Z,100131.75
2023-01-23T00:36:55.670Z,100138.88
2023-01-23T00:39:01.969Z,100138.69
2023-01-23T00:41:08.033Z,100141.81
2023-01-23T00:43:15.474Z,100136.69
2023-01-23T00:45:21.258Z,100132.44
2023-01-23T00:47:26.182Z,100131.41
2023-01-23T00:49:32.117Z,100131.38
2023-01-23T00:51:37.639Z,100127.13
2023-01-23T00:53:43.140Z,100129.06
2023-01-23T00:55:48.706Z,100128.22
2023-01-23T00:57:54.344Z,100128.94
2023-01-23T01:00:01.784Z,100131.31
2023-01-23T01:02:07.535Z,100135.16
2023-01-23T01:04:13.074Z,100129.28
2023-01-23T01:06:19.116Z,100132.19
2023-01-23T01:08:24.000Z,100134.56
2023-01-23T01:10:31.694Z,100129.47
2023-01-23T01:12:36.848Z,100133.66
2023-01-23T01:14:41.857Z,100135.88
2023-01-23T01:16:49.325Z,100135.44
2023-01-23T01:18:54.659Z,100145.75
2023-01-23T01:21:00.158Z,100150.44
2023-01-23T01:23:06.226Z,100146.06
2023-01-23T01:25:12.423Z,100152.19
2023-01-23T01:27:17.372Z,100152.78
2023-01-23T01:29:22.276Z,100156.78
2023-01-23T01:31:27.705Z,100154.84
2023-01-23T01:33:36.442Z,100153.84
2023-01-23T01:35:43.793Z,100152.56
2023-01-23T01:37:49.329Z,100139.97
2023-01-23T01:39:54.211Z,100147.97
2023-01-23T01:41:59.264Z,100139.66
2023-01-23T01:44:04.271Z,100145.94
2023-01-23T01:46:32.336Z,100150.38
2023-01-23T01:48:50.209Z,100160.16
2023-01-23T01:50:56.626Z,100152.59
2023-01-23T01:53:01.746Z,100160.41
2023-01-23T01:55:09.839Z,100160.91
2023-01-23T01:57:19.678Z,100164.94
2023-01-23T01:59:28.466Z,100166.69
2023-01-23T02:01:34.103Z,100174.31
2023-01-23T02:03:46.404Z,100175.47
2023-01-23T02:05:53.412Z,100182.13
2023-01-23T02:08:05.125Z,100178.88
2023-01-23T02:10:13.758Z,100183.41
2023-01-23T02:12:21.254Z,100180.81
2023-01-23T02:14:26.302Z,100183.16
2023-01-23T02:16:40.266Z,100179.34
2023-01-23T02:18:53.795Z,100171.13
2023-01-23T02:21:02.381Z,100167.88
2023-01-23T02:23:16.176Z,100162.91
2023-01-23T02:25:29.551Z,100177.66
2023-01-23T02:27:37.764Z,100183.41
2023-01-23T02:29:48.407Z,100185.13
2023-01-23T02:31:56.259Z,100181.59
2023-01-23T02:34:03.543Z,100180.59
2023-01-23T02:36:11.392Z,100184.84
2023-01-23T02:38:16.553Z,100188.69
2023-01-23T02:40:22.556Z,100185.22
2023-01-23T02:42:28.726Z,100187.13
2023-01-23T02:44:36.346Z,100190.63
2023-01-23T02:46:42.985Z,100187.38
2023-01-23T02:48:48.895Z,100180.78
2023-01-23T02:50:54.181Z,100192.53
2023-01-23T02:52:59.712Z,100190.06
2023-01-23T02:55:06.277Z,100187.81
2023-01-23T02:57:11.680Z,100191.41
2023-01-23T02:59:30.575Z,100198.19
2023-01-23T03:01:39.139Z,100195.63
2023-01-23T03:03:44.450Z,100186.66
2023-01-23T03:05:50.481Z,100195.03
2023-01-23T03:07:55.604Z,100195.88
2023-01-23T03:10:01.376Z,100199.84
2023-01-23T03:12:07.703Z,100203.34
2023-01-23T03:14:16.445Z,100200.16
2023-01-23T03:16:21.453Z,100201.19
2023-01-23T03:18:31.335Z,100199.72
2023-01-23T03:20:41.615Z,100218.53
2023-01-23T03:22:46.942Z,100218.66
2023-01-23T03:24:52.020Z,100220.00
2023-01-23T03:26:57.364Z,100218.19
2023-01-23T03:29:28.272Z,100211.00
2023-01-23T03:31:34.027Z,100218.34
2023-01-23T03:33:43.493Z,100218.19
2023-01-23T03:35:49.874Z,100223.06
2023-01-23T03:37:54.882Z,100216.50
2023-01-23T03:40:12.442Z,100223.28
2023-01-23T03:42:15.122Z,100223.28
2023-01-23T03:44:21.560Z,100228.56
2023-01-23T03:46:27.549Z,100229.41
2023-01-23T03:48:32.422Z,100233.38
2023-01-23T03:50:42.378Z,100235.09
2023-01-23T03:52:48.606Z,100226.78
2023-01-23T03:54:53.501Z,100227.75
2023-01-23T03:56:58.443Z,100239.28
2023-01-23T03:59:23.318Z,100229.13
2023-01-23T04:01:28.669Z,100235.00
2023-01-23T04:03:34.249Z,100239.03
2023-01-23T04:05:41.713Z,100234.75
2023-01-23T04:07:47.020Z,100239.72
2023-01-23T04:09:52.385Z,100238.03
2023-01-23T04:11:57.626Z,100240.72
2023-01-23T04:14:03.921Z,100243.22
2023-01-23T04:16:10.265Z,100244.22
2023-01-23T04:18:15.207Z,100252.09
2023-01-23T04:20:21.208Z,100247.88
2023-01-23T04:22:28.952Z,100240.59
2023-01-23T04:24:34.110Z,100239.00
2023-01-23T04:26:39.038Z,100243.00
2023-01-23T04:28:44.458Z,100247.03
2023-01-23T04:30:50.057Z,100247.03
2023-01-23T04:33:01.630Z,100248.50
2023-01-23T04:35:07.925Z,100241.97
2023-01-23T04:37:15.506Z,100251.03
2023-01-23T04:39:23.075Z,100239.50
2023-01-23T04:41:31.969Z,100239.50
2023-01-23T04:43:45.301Z,100241.84
2023-01-23T04:45:53.076Z,100241.97
2023-01-23T04:48:30.560Z,100243.63
2023-01-23T04:50:36.698Z,100244.28
2023-01-23T04:52:41.623Z,100238.34
2023-01-23T04:54:49.249Z,100240.84
2023-01-23T04:56:54.335Z,100237.34
2023-01-23T04:58:59.535Z,100244.84
2023-01-23T05:01:05.889Z,100243.13
2023-01-23T05:03:12.419Z,100242.94
2023-01-23T05:05:22.111Z,100246.13
2023-01-23T05:07:29.837Z,100249.53
2023-01-23T05:09:53.663Z,100242.88
2023-01-23T05:11:59.857Z,100243.59
2023-01-23T05:14:07.206Z,100248.03
2023-01-23T05:16:12.862Z,100252.13
2023-01-23T05:18:37.854Z,100251.97
2023-01-23T05:20:42.843Z,100256.72
2023-01-23T05:22:55.502Z,100261.69
2023-01-23T05:25:12.466Z,100258.63
2023-01-23T05:27:17.505Z,100252.56
2023-01-23T05:29:26.004Z,100257.41
2023-01-23T05:31:39.065Z,100262.53
2023-01-23T05:34:07.334Z,100264.50
2023-01-23T05:36:18.733Z,100268.50
2023-01-23T05:38:23.923Z,100269.00
2023-01-23T05:40:31.386Z,100276.44
2023-01-23T05:42:52.226Z,100283.53
2023-01-23T05:45:18.657Z,100285.91
2023-01-23T05:47:23.920Z,100284.22
2023-01-23T05:49:29.161Z,100292.38
2023-01-23T05:51:35.341Z,100290.75
2023-01-23T05:53:40.232Z,100289.97
2023-01-23T05:55:48.475Z,100287.47
2023-01-23T05:57:54.218Z,100299.94
2023-01-23T06:00:20.538Z,100294.25
2023-01-23T06:02:49.344Z,100289.38
2023-01-23T06:05:24.930Z,100305.16
2023-01-23T06:07:38.881Z,100301.13
2023-01-23T06:09:46.862Z,100304.25
2023-01-23T06:11:54.747Z,100310.19
2023-01-23T06:14:00.580Z,100309.88
2023-01-23T06:16:06.219Z,100312.25
2023-01-23T06:18:11.985Z,100320.38
2023-01-23T06:20:19.850Z,100314.81
2023-01-23T06:22:24.961Z,100322.19
2023-01-23T06:24:39.851Z,100323.88
2023-01-23T06:26:44.729Z,100331.13
2023-01-23T06:28:52.907Z,100331.84
2023-01-23T06:31:04.669Z,100328.69
2023-01-23T06:33:21.748Z,100325.44
2023-01-23T06:35:27.784Z,100327.91
2023-01-23T06:37:33.604Z,100330.41
2023-01-23T06:39:38.913Z,100328.03
2023-01-23T06:41:45.839Z,100332.19
2023-01-23T06:44:00.875Z,100332.53
2023-01-23T06:46:07.338Z,100332.06
2023-01-23T06:48:12.313Z,100327.47
2023-01-23T06:50:20.673Z,100331.31
2023-01-23T06:52:25.759Z,100331.75
2023-01-23T06:54:31.740Z,100341.03
2023-01-23T06:56:40.308Z,100341.66
2023-01-23T06:58:48.803Z,100347.69
2023-01-23T07:01:10.819Z,100339.44
2023-01-23T07:03:41.475Z,100347.16
2023-01-23T07:05:46.681Z,100346.56
2023-01-23T07:07:51.546Z,100352.38
2023-01-23T07:09:56.719Z,100354.66
2023-01-23T07:12:03.585Z,100353.16
2023-01-23T07:14:10.108Z,100357.44
2023-01-23T07:16:19.039Z,100360.84
2023-01-23T07:18:25.871Z,100359.25
2023-01-23T07:20:31.897Z,100358.84
2023-01-23T07:22:38.329Z,100372.06
2023-01-23T07:24:43.459Z,100372.59
2023-01-23T07:26:48.866Z,100376.69
2023-01-23T07:28:54.481Z,100367.56
2023-01-23T07:31:01.425Z,100376.69
2023-01-23T07:33:09.781Z,100376.56
2023-01-23T07:35:15.511Z,100378.81
2023-01-23T07:37:21.264Z,100384.38
2023-01-23T07:39:27.004Z,100386.09
2023-01-23T07:41:32.709Z,100392.84
2023-01-23T07:43:41.705Z,100394.88
2023-01-23T07:45:47.428Z,100398.50
2023-01-23T07:47:53.077Z,100399.53
2023-01-23T07:50:00.548Z,100398.31
2023-01-23T07:52:07.346Z,100401.38
2023-01-23T07:54:13.097Z,100394.94
2023-01-23T07:56:19.638Z,100403.38
2023-01-23T07:58:24.927Z,100400.38
2023-01-23T08:00:30.585Z,100404.72
2023-01-23T08:02:37.524Z,100405.78
2023-01-23T08:04:43.040Z,100411.00
2023-01-23T08:06:50.565Z,100403.91
2023-01-23T08:08:55.610Z,100409.63
2023-01-23T08:11:00.650Z,100405.03
2023-01-23T08:13:05.537Z,100409.88
2023-01-23T08:15:13.017Z,100413.75
2023-01-23T08:17:18.142Z,100419.00
2023-01-23T08:19:25.650Z,100417.06
2023-01-23T08:21:30.622Z,100425.88
2023-01-23T08:23:39.150Z,100419.97
2023-01-23T08:25:50.016Z,100425.06
2023-01-23T08:27:56.233Z,100425.28
2023-01-23T08:30:01.187Z,100427.06
2023-01-23T08:32:06.240Z,100427.06
2023-01-23T08:34:11.175Z,100424.41
2023-01-23T08:36:17.019Z,100430.22
2023-01-23T08:38:22.450Z,100423.56
2023-01-23T08:40:30.310Z,100431.81
2023-01-23T08:42:35.531Z,100430.13
2023-01-23T08:44:40.920Z,100435.31
2023-01-23T08:46:45.808Z,100433.72
2023-01-23T08:48:50.704Z,100441.16
2023-01-23T08:51:02.719Z,100443.41
2023-01-23T08:53:08.098Z,100429.28
2023-01-23T08:55:15.050Z,100436.03
2023-01-23T08:57:22.559Z,100433.13
2023-01-23T08:59:28.952Z,100432.38
2023-01-23T09:01:33.819Z,100435.72
2023-01-23T09:03:38.737Z,100432.63
2023-01-23T09:05:43.919Z,100446.72
2023-01-23T09:07:49.676Z,100435.47
2023-01-23T09:09:55.068Z,100432.63
2023-01-23T09:12:00.674Z,100428.72
2023-01-23T09:14:08.140Z,100435.59
2023-01-23T09:16:14.083Z,100439.34
2023-01-23T09:18:18.989Z,100436.50
2023-01-23T09:20:26.132Z,100444.34
2023-01-23T09:22:31.009Z,100437.38
2023-01-23T09:24:36.373Z,100452.69
2023-01-23T09:26:43.896Z,100447.09
2023-01-23T09:28:48.804Z,100447.69
2023-01-23T09:30:56.361Z,100454.53
2023-01-23T09:33:01.558Z,100455.13
2023-01-23T09:35:07.161Z,100451.38
2023-01-23T09:37:12.112Z,100450.91
2023-01-23T09:39:18.027Z,100458.00
2023-01-23T09:41:28.442Z,100457.72
2023-01-23T09:43:44.392Z,100453.16
2023-01-23T09:46:03.594Z,100451.41
2023-01-23T09:48:23.257Z,100455.63
2023-01-23T09:50:33.660Z,100458.56
2023-01-23T09:52:46.041Z,100452.00
2023-01-23T09:54:55.686Z,100452.25
2023-01-23T09:57:05.379Z,100457.03
2023-01-23T09:59:20.343Z,100459.22
2023-01-23T10:01:32.798Z,100461.88
2023-01-23T10:03:37.785Z,100458.47
2023-01-23T10:05:59.959Z,100460.16
2023-01-23T10:08:22.116Z,100465.56
2023-01-23T10:10:55.624Z,100466.63
2023-01-23T10:13:09.276Z,100467.81
2023-01-23T10:15:28.118Z,100452.44
2023-01-23T10:17:44.517Z,100445.47
2023-01-23T10:20:20.081Z,100442.44
2023-01-23T10:22:37.298Z,100434.94
2023-01-23T10:24:52.108Z,100434.78
2023-01-23T10:27:01.162Z,100441.13
2023-01-23T10:29:16.883Z,100444.19
2023-01-23T10:31:36.065Z,100443.78
2023-01-23T10:33:51.020Z,100443.69
2023-01-23T10:36:01.637Z,100443.56
2023-01-23T10:38:21.248Z,100446.31
2023-01-23T10:40:41.031Z,100448.56
2023-01-23T10:42:46.264Z,100446.56
2023-01-23T10:44:53.946Z,100442.75
2023-01-23T10:47:03.952Z,100447.06
2023-01-23T10:49:11.405Z,100451.97
2023-01-23T10:51:37.622Z,100456.22
2023-01-23T10:53:43.055Z,100450.88
2023-01-23T10:55:49.272Z,100452.78
2023-01-23T10:58:02.556Z,100452.16
2023-01-23T11:00:20.854Z,100444.13
2023-01-23T11:02:32.097Z,100446.75
2023-01-23T11:04:42.014Z,100443.06
2023-01-23T11:06:47.300Z,100442.00
2023-01-23T11:09:00.264Z,100443.88
2023-01-23T11:11:25.983Z,100439.75
2023-01-23T11:13:33.641Z,100445.69
2023-01-23T11:15:43.832Z,100436.97
2023-01-23T11:17:49.210Z,100437.94
2023-01-23T11:19:59.821Z,100427.16
2023-01-23T11:22:07.218Z,100429.38
2023-01-23T11:24:27.780Z,100426.31
2023-01-23T11:26:40.986Z,100418.28
2023-01-23T11:28:52.240Z,100416.81
2023-01-23T11:31:13.737Z,100415.16
2023-01-23T11:33:37.023Z,100413.91
2023-01-23T11:36:09.150Z,100412.38
2023-01-23T11:38:27.254Z,100412.38
2023-01-23T11:40:38.320Z,100406.00
2023-01-23T11:42:45.568Z,100411.94
2023-01-23T11:44:51.425Z,100405.91
2023-01-23T11:47:35.529Z,100410.28
2023-01-23T11:49:55.337Z,100412.78
2023-01-23T11:52:26.606Z,100402.31
2023-01-23T11:54:57.833Z,100408.00
2023-01-23T11:57:14.581Z,100407.94
2023-01-23T12:00:02.167Z,100399.78
2023-01-23T12:02:41.036Z,100398.38
2023-01-23T12:05:11.065Z,100395.56
2023-01-23T12:07:24.133Z,100398.13
2023-01-23T12:09:38.079Z,100388.03
2023-01-23T12:11:58.553Z,100386.44
2023-01-23T12:14:16.162Z,100385.41
2023-01-23T12:16:31.301Z,100382.09
2023-01-23T12:18:50.768Z,100384.41
2023-01-23T12:21:06.165Z,100380.50
2023-01-23T12:23:29.751Z,100375.75
2023-01-23T12:25:39.292Z,100372.34
2023-01-23T12:27:46.488Z,100379.91
2023-01-23T12:30:29.582Z,100380.25
2023-01-23T12:32:49.984Z,100374.47
2023-01-23T12:35:13.499Z,100379.75
2023-01-23T12:37:38.468Z,100378.94
2023-01-23T12:40:03.571Z,100381.13
2023-01-23T12:42:15.998Z,100398.22
2023-01-23T12:44:30.500Z,100388.84
2023-01-23T12:46:46.868Z,100382.34
2023-01-23T12:49:01.516Z,100374.72
2023-01-23T12:51:14.637Z,100374.94
2023-01-23T12:53:22.256Z,100366.91
2023-01-23T12:55:38.236Z,100376.78
2023-01-23T12:57:59.594Z,100370.94
2023-01-23T13:00:33.792Z,100369.16
2023-01-23T13:02:48.169Z,100367.03
2023-01-23T13:05:09.339Z,100364.31
2023-01-23T13:07:31.956Z,100367.28
2023-01-23T13:09:52.342Z,100375.28
2023-01-23T13:12:12.007Z,100377.94
2023-01-23T13:14:32.880Z,100376.94
2023-01-23T13:16:50.878Z,100373.50
2023-01-23T13:19:10.771Z,100377.22
2023-01-23T13:21:28.705Z,100378.88
2023-01-23T13:23:35.609Z,100373.44
2023-01-23T13:25:38.328Z,100375.03
2023-01-23T13:27:52.872Z,100372.78
2023-01-23T13:29:59.687Z,100373.69
2023-01-23T13:32:25.315Z,100365.16
2023-01-23T13:34:42.765Z,100365.50
2023-01-23T13:36:49.423Z,100363.16
2023-01-23T13:39:31.872Z,100355.53
2023-01-23T13:41:37.723Z,100350.41
2023-01-23T13:43:55.830Z,100359.94
2023-01-23T13:46:01.095Z,100357.63
2023-01-23T14:22:25.015Z,100360.22
2023-01-23T14:24:43.709Z,100351.03
2023-01-23T14:26:53.941Z,100347.03
2023-01-23T14:29:01.650Z,100359.41
2023-01-23T14:31:09.991Z,100350.22
2023-01-23T14:33:20.934Z,100354.72
2023-01-23T14:35:28.976Z,100357.16
2023-01-23T14:37:38.830Z,100359.19
2023-01-23T14:39:53.655Z,100353.28
2023-01-23T14:42:05.393Z,100360.75
2023-01-23T14:44:21.909Z,100352.50
2023-01-23T14:46:40.143Z,100363.13
2023-01-23T14:48:53.718Z,100356.81
2023-01-23T14:51:20.080Z,100352.41
2023-01-23T14:53:25.495Z,100356.97
2023-01-23T14:55:32.880Z,100364.38
2023-01-23T14:57:39.183Z,100360.34
2023-01-23T14:59:46.934Z,100358.84
2023-01-23T15:01:57.420Z,100359.94
2023-01-23T15:04:10.049Z,100358.00
2023-01-23T15:06:21.672Z,100360.66
2023-01-23T15:08:34.384Z,100361.03
2023-01-23T15:10:51.482Z,100359.91
2023-01-23T15:13:02.441Z,100355.13
2023-01-23T15:15:09.483Z,100362.03
2023-01-23T15:17:20.978Z,100362.69
2023-01-23T15:19:29.607Z,100370.28
2023-01-23T15:21:40.033Z,100365.28
2023-01-23T15:24:19.444Z,100369.59
2023-01-23T15:26:35.848Z,100361.16
2023-01-23T15:28:51.499Z,100362.66
2023-01-23T15:30:56.739Z,100365.47
2023-01-23T15:33:07.294Z,100365.66
2023-01-23T15:35:20.281Z,100360.28
2023-01-23T15:37:28.003Z,100356.38
2023-01-23T15:39:38.009Z,100355.22
2023-01-23T15:41:47.068Z,100360.00
2023-01-23T15:43:52.321Z,100364.81
2023-01-23T15:45:57.528Z,100363.91
2023-01-23T15:48:03.071Z,100369.66
2023-01-23T15:50:09.459Z,100369.47
2023-01-23T15:52:25.128Z,100372.63
2023-01-23T15:54:36.190Z,100374.63
2023-01-23T15:56:48.839Z,100374.75
2023-01-23T15:59:00.665Z,100370.16
2023-01-23T16:01:05.837Z,100373.41
2023-01-23T16:03:14.587Z,100378.06
2023-01-23T16:05:19.757Z,100372.25
2023-01-23T16:07:34.425Z,100373.94
2023-01-23T16:09:42.252Z,100372.63
2023-01-23T16:11:47.336Z,100374.75
2023-01-23T16:13:52.235Z,100366.50
2023-01-23T16:15:57.174Z,100367.59
2023-01-23T16:18:04.975Z,100377.59
2023-01-23T16:20:15.820Z,100373.94
2023-01-23T16:22:29.694Z,100377.22
2023-01-23T16:24:39.383Z,100377.53
2023-01-23T16:26:44.716Z,100377.66
2023-01-23T16:28:49.942Z,100378.16
2023-01-23T16:30:55.720Z,100377.44
2023-01-23T16:33:00.707Z,100377.22
2023-01-23T16:35:06.080Z,100383.59
2023-01-23T16:37:17.823Z,100380.00
2023-01-23T16:39:29.814Z,100378.28
2023-01-23T16:41:34.665Z,100390.84
2023-01-23T16:43:40.310Z,100391.13
2023-01-23T16:45:45.209Z,100388.72
2023-01-23T16:47:50.214Z,100391.06
2023-01-23T16:49:55.052Z,100399.56
2023-01-23T16:52:03.145Z,100395.59
2023-01-23T16:54:18.329Z,100393.81
2023-01-23T16:56:33.065Z,100390.88
2023-01-23T16:58:42.363Z,100402.06
2023-01-23T17:00:47.955Z,100395.00
2023-01-23T17:02:57.405Z,100396.66
2023-01-23T17:05:02.733Z,100403.34
2023-01-23T17:07:15.102Z,100399.22
2023-01-23T17:09:20.140Z,100406.28
2023-01-23T17:11:33.732Z,100406.59
2023-01-23T17:13:38.919Z,100410.00
2023-01-23T17:15:44.348Z,100401.97
2023-01-23T17:17:51.284Z,100401.75
2023-01-23T17:19:57.572Z,100394.09
2023-01-23T17:22:05.270Z,100391.50
2023-01-23T17:24:17.102Z,100393.09
2023-01-23T17:26:23.883Z,100394.69
2023-01-23T17:28:31.729Z,100391.22
2023-01-23T17:30:36.789Z,100399.53
2023-01-23T17:32:41.751Z,100410.94
2023-01-23T17:34:50.145Z,100407.47
2023-01-23T17:36:57.060Z,100412.31
2023-01-23T17:39:02.593Z,100412.41
2023-01-23T17:41:11.787Z,100414.13
2023-01-23T17:43:17.334Z,100406.19
2023-01-23T17:45:27.491Z,100401.31
2023-01-23T17:47:34.793Z,100404.47
2023-01-23T17:49:40.067Z,100410.06
2023-01-23T17:51:45.403Z,100416.75
2023-01-23T17:53:51.070Z,100417.97
2023-01-23T17:55:56.278Z,100414.56
2023-01-23T17:58:02.099Z,100419.31
2023-01-23T18:00:08.894Z,100421.00
2023-01-23T18:02:30.944Z,100420.41
2023-01-23T18:04:36.031Z,100426.16
2023-01-23T18:06:41.004Z,100426.31
2023-01-23T18:08:46.004Z,100428.16
2023-01-23T18:10:56.674Z,100422.25
2023-01-23T18:13:14.413Z,100424.91
2023-01-23T18:15:29.179Z,100423.00
2023-01-23T18:17:44.809Z,100421.50
2023-01-23T18:19:51.625Z,100427.38
2023-01-23T18:21:59.424Z,100434.84
2023-01-23T18:24:05.328Z,100439.91
2023-01-23T18:26:27.504Z,100432.28
2023-01-23T18:28:42.752Z,100433.25
2023-01-23T18:30:58.200Z,100431.44
2023-01-23T18:33:23.411Z,100429.00
2023-01-23T18:35:39.634Z,100434.84
2023-01-23T18:37:54.409Z,100431.44
2023-01-23T18:40:06.045Z,100431.25
2023-01-23T18:42:23.798Z,100437.16
2023-01-23T18:44:30.173Z,100442.28
2023-01-23T18:46:35.813Z,100442.44
2023-01-23T18:48:45.789Z,100436.31
2023-01-23T18:51:08.670Z,100434.84
2023-01-23T18:53:28.434Z,100435.75
2023-01-23T18:55:40.998Z,100436.47
2023-01-23T18:58:08.923Z,100438.00
2023-01-23T19:00:20.887Z,100440.44
2023-01-23T19:02:34.785Z,100440.03
2023-01-23T19:04:53.877Z,100441.50
2023-01-23T19:07:00.423Z,100441.59
2023-01-23T19:09:06.194Z,100443.38
2023-01-23T19:11:26.439Z,100441.06
2023-01-23T19:13:43.645Z,100439.97
2023-01-23T19:16:01.173Z,100441.81
2023-01-23T19:18:38.612Z,100447.56
2023-01-23T19:20:53.376Z,100444.44
2023-01-23T19:23:13.430Z,100442.34
2023-01-23T19:25:20.862Z,100443.59
2023-01-23T19:27:28.358Z,100450.06
2023-01-23T19:29:34.290Z,100446.56
2023-01-23T19:31:43.713Z,100444.88
2023-01-23T19:33:50.294Z,100444.88
2023-01-23T19:35:58.014Z,100453.13
2023-01-23T19:38:02.909Z,100446.34
2023-01-23T19:40:11.002Z,100442.38
2023-01-23T19:42:17.249Z,100444.78
2023-01-23T19:44:24.899Z,100438.22
2023-01-23T19:46:33.530Z,100446.34
2023-01-23T19:48:38.419Z,100454.91
2023-01-23T19:50:44.105Z,100455.66
2023-01-23T19:52:52.559Z,100454.91
2023-01-23T19:54:57.426Z,100455.31
2023-01-23T19:57:02.648Z,100457.72
2023-01-23T19:59:08.399Z,100459.19
2023-01-23T20:01:25.722Z,100460.03
2023-01-23T20:03:30.873Z,100461.78
2023-01-23T20:05:35.918Z,100461.63
2023-01-23T20:07:41.400Z,100469.94
2023-01-23T20:09:49.665Z,100472.19
2023-01-23T20:11:54.876Z,100461.69
2023-01-23T20:14:00.328Z,100459.91
2023-01-23T20:16:11.453Z,100460.53
2023-01-23T20:18:16.312Z,100461.44
2023-01-23T20:20:22.163Z,100456.63
2023-01-23T20:22:32.097Z,100465.72
2023-01-23T20:24:37.127Z,100465.56
2023-01-23T20:26:45.453Z,100476.38
2023-01-23T20:28:50.530Z,100479.13
2023-01-23T20:30:55.533Z,100473.50
2023-01-23T20:33:00.874Z,100469.13
2023-01-23T20:35:06.311Z,100474.78
2023-01-23T20:37:11.267Z,100473.09
2023-01-23T20:39:16.715Z,100473.78
2023-01-23T20:41:23.647Z,100474.03
2023-01-23T20:43:31.126Z,100478.28
2023-01-23T20:45:36.043Z,100478.91
2023-01-23T20:47:41.348Z,100470.69
2023-01-23T20:49:46.427Z,100478.06
2023-01-23T20:51:51.329Z,100472.94
2023-01-23T20:53:53.711Z,100477.75
2023-01-23T20:56:00.893Z,100466.97
2023-01-23T20:58:18.303Z,100469.28
2023-01-23T21:00:26.023Z,100471.00
2023-01-23T21:02:34.045Z,100466.03
2023-01-23T21:04:40.536Z,100464.22
2023-01-23T21:06:45.445Z,100474.88
2023-01-23T21:08:50.531Z,100471.53
2023-01-23T21:10:55.515Z,100467.50
2023-01-23T21:13:00.412Z,100474.25
2023-01-23T21:15:05.303Z,100470.84
2023-01-23T21:17:12.908Z,100475.97
2023-01-23T21:19:18.455Z,100480.78
2023-01-23T21:21:25.568Z,100468.22
2023-01-23T21:23:30.603Z,100467.28
2023-01-23T21:25:38.610Z,100473.25
2023-01-23T21:27:43.503Z,100468.34
2023-01-23T21:29:48.724Z,100472.56
2023-01-23T21:31:53.710Z,100467.38
2023-01-23T21:34:02.744Z,100471.50
2023-01-23T21:36:08.961Z,100469.84
2023-01-23T21:38:13.889Z,100462.31
2023-01-23T21:40:19.243Z,100472.91
2023-01-23T21:42:24.154Z,100472.75
2023-01-23T21:44:29.048Z,100464.63
2023-01-23T21:46:33.998Z,100471.63
2023-01-23T21:48:39.677Z,100470.84
2023-01-23T21:50:47.175Z,100471.88
2023-01-23T21:52:52.163Z,100476.69
2023-01-23T21:54:57.062Z,100474.25
2023-01-23T21:57:01.951Z,100480.91
2023-01-23T21:59:07.039Z,100480.59
2023-01-23T22:01:28.782Z,100481.59
2023-01-23T22:03:37.123Z,100482.22
2023-01-23T22:05:42.044Z,100472.34
2023-01-23T22:07:50.222Z,100473.94
2023-01-23T22:09:55.803Z,100487.13
2023-01-23T22:12:00.745Z,100481.94
2023-01-23T22:14:06.675Z,100479.53
2023-01-23T22:16:14.213Z,100480.38
2023-01-23T22:18:19.207Z,100491.31
2023-01-23T22:20:24.092Z,100491.78
2023-01-23T22:22:29.012Z,100480.94
2023-01-23T22:24:36.498Z,100491.88
2023-01-23T22:26:41.409Z,100483.63
2023-01-23T22:28:46.604Z,100486.72
2023-01-23T22:30:52.144Z,100485.97
2023-01-23T22:32:57.038Z,100485.00
2023-01-23T22:35:01.972Z,100482.34
2023-01-23T22:37:07.928Z,100485.47
2023-01-23T22:39:16.478Z,100485.38
2023-01-23T22:41:24.476Z,100488.03
2023-01-23T22:43:30.023Z,100490.66
2023-01-23T22:45:35.082Z,100486.47
2023-01-23T22:47:40.031Z,100488.88
2023-01-23T22:49:45.528Z,100479.53
2023-01-23T22:51:51.541Z,100487.59
2023-01-23T22:53:58.545Z,100483.31
2023-01-23T22:56:08.739Z,100484.94
2023-01-23T22:58:16.253Z,100475.75
2023-01-23T23:00:22.032Z,100483.81
2023-01-23T23:02:27.536Z,100476.31
2023-01-23T23:04:32.548Z,100477.78
2023-01-23T23:06:37.490Z,100480.00
2023-01-23T23:08:44.660Z,100474.91
2023-01-23T23:13:06.798Z,100468.88
2023-01-23T23:15:17.712Z,100470.44
2023-01-23T23:17:22.701Z,100475.81
2023-01-23T23:19:28.171Z,100475.13
2023-01-23T23:21:37.098Z,100470.69
2023-01-23T23:23:42.504Z,100477.44
2023-01-23T23:25:49.588Z,100480.69
2023-01-23T23:27:54.461Z,100477.41
2023-01-23T23:29:59.336Z,100477.34
2023-01-23T23:32:07.762Z,100487.25
2023-01-23T23:34:12.834Z,100482.31
2023-01-23T23:36:17.756Z,100487.59
2023-01-23T23:38:23.226Z,100492.56
2023-01-23T23:40:28.461Z,100488.84
2023-01-23T23:42:33.514Z,100487.03
2023-01-23T23:44:38.467Z,100491.19
2023-01-23T23:46:44.248Z,100497.88
2023-01-23T23:48:51.740Z,100499.44
2023-01-23T23:50:56.967Z,100492.22
2023-01-23T23:53:02.176Z,100493.75
2023-01-23T23:55:08.319Z,100492.06
2023-01-23T23:57:13.751Z,100499.56
2023-01-23T23:59:20.114Z,100492.16
